sensor_id;sensor_type;location;lat;lon;timestamp;pressure;altitude;pressure_sealevel;temperature;humidity
5753;BME280;2901;42.140;24.760;2022-12-07T00:01:36;99656.69;;;6.99;100.00
5753;BME280;2901;42.140;24.760;2022-12-07T00:04:04;99653.22;;;6.96;100.00
5753;BME280;2901;42.140;24.760;2022-12-07T00:06:36;99655.00;;;7.01;100.00
5753;BME280;2901;42.140;24.760;2022-12-07T00:09:03;99655.91;;;7.06;100.00
5753;BME280;2901;42.140;24.760;2022-12-07T00:11:29;99655.88;;;7.05;100.00
5753;BME280;2901;42.140;24.760;2022-12-07T00:14:00;99664.34;;;6.93;100.00
5753;BME280;2901;42.140;24.760;2022-12-07T00:16:28;99660.91;;;6.91;100.00
5753;BME280;2901;42.140;24.760;2022-12-07T00:18:54;99654.00;;;6.89;100.00
5753;BME280;2901;42.140;24.760;2022-12-07T00:21:25;99652.22;;;6.83;100.00
5753;BME280;2901;42.140;24.760;2022-12-07T00:23:51;99651.41;;;6.84;100.00
5753;BME280;2901;42.140;24.760;2022-12-07T00:26:20;99647.09;;;6.82;100.00
5753;BME280;2901;42.140;24.760;2022-12-07T00:28:50;99653.06;;;6.81;100.00
5753;BME280;2901;42.140;24.760;2022-12-07T00:31:18;99660.81;;;6.84;100.00
5753;BME280;2901;42.140;24.760;2022-12-07T00:33:43;99648.72;;;6.75;100.00
5753;BME280;2901;42.140;24.760;2022-12-07T00:36:12;99654.69;;;6.71;100.00
5753;BME280;2901;42.140;24.760;2022-12-07T00:38:39;99665.00;;;6.74;100.00
5753;BME280;2901;42.140;24.760;2022-12-07T00:41:15;99655.56;;;6.73;100.00
5753;BME280;2901;42.140;24.760;2022-12-07T00:43:42;99651.31;;;6.76;100.00
5753;BME280;2901;42.140;24.760;2022-12-07T00:46:07;99654.78;;;6.80;100.00
5753;BME280;2901;42.140;24.760;2022-12-07T00:48:33;99654.75;;;6.77;100.00
5753;BME280;2901;42.140;24.760;2022-12-07T00:50:58;99648.72;;;6.76;100.00
5753;BME280;2901;42.140;24.760;2022-12-07T00:53:24;99652.13;;;6.75;100.00
5753;BME280;2901;42.140;24.760;2022-12-07T00:55:50;99647.00;;;6.74;100.00
5753;BME280;2901;42.140;24.760;2022-12-07T00:58:18;99660.66;;;6.70;100.00
5753;BME280;2901;42.140;24.760;2022-12-07T01:00:43;99646.06;;;6.69;100.00
5753;BME280;2901;42.140;24.760;2022-12-07T01:03:11;99650.34;;;6.67;100.00
5753;BME280;2901;42.140;24.760;2022-12-07T01:05:36;99648.59;;;6.64;100.00
5753;BME280;2901;42.140;24.760;2022-12-07T01:08:02;99652.09;;;6.72;100.00
5753;BME280;2901;42.140;24.760;2022-12-07T01:10:28;99640.16;;;6.77;100.00
5753;BME280;2901;42.140;24.760;2022-12-07T01:12:55;99643.66;;;6.81;100.00
5753;BME280;2901;42.140;24.760;2022-12-07T01:15:20;99643.72;;;6.87;100.00
5753;BME280;2901;42.140;24.760;2022-12-07T01:17:46;99635.16;;;6.90;100.00
5753;BME280;2901;42.140;24.760;2022-12-07T01:20:11;99640.38;;;6.97;100.00
5753;BME280;2901;42.140;24.760;2022-12-07T01:22:38;99630.09;;;7.02;100.00
5753;BME280;2901;42.140;24.760;2022-12-07T01:25:05;99636.19;;;7.08;100.00
5753;BME280;2901;42.140;24.760;2022-12-07T01:27:32;99637.09;;;7.13;100.00
5753;BME280;2901;42.140;24.760;2022-12-07T01:29:58;99634.56;;;7.16;100.00
5753;BME280;2901;42.140;24.760;2022-12-07T01:32:24;99626.81;;;7.16;100.00
5753;BME280;2901;42.140;24.760;2022-12-07T01:34:49;99627.69;;;7.18;100.00
5753;BME280;2901;42.140;24.760;2022-12-07T01:37:14;99621.59;;;7.09;100.00
5753;BME280;2901;42.140;24.760;2022-12-07T01:39:40;99616.44;;;7.04;100.00
5753;BME280;2901;42.140;24.760;2022-12-07T01:42:10;99619.06;;;7.10;100.00
5753;BME280;2901;42.140;24.760;2022-12-07T01:47:43;99612.22;;;7.15;100.00
5753;BME280;2901;42.140;24.760;2022-12-07T01:50:12;99594.25;;;7.21;100.00
5753;BME280;2901;42.140;24.760;2022-12-07T01:52:39;99606.28;;;7.22;100.00
5753;BME280;2901;42.140;24.760;2022-12-07T01:55:12;99607.16;;;7.26;100.00
5753;BME280;2901;42.140;24.760;2022-12-07T01:57:41;99597.78;;;7.32;100.00
5753;BME280;2901;42.140;24.760;2022-12-07T02:00:08;99608.97;;;7.36;100.00
5753;BME280;2901;42.140;24.760;2022-12-07T02:02:38;99612.41;;;7.38;100.00
5753;BME280;2901;42.140;24.760;2022-12-07T02:05:06;99607.31;;;7.43;100.00
5753;BME280;2901;42.140;24.760;2022-12-07T02:07:34;99609.03;;;7.45;100.00
5753;BME280;2901;42.140;24.760;2022-12-07T02:10:20;99604.78;;;7.50;100.00
5753;BME280;2901;42.140;24.760;2022-12-07T02:12:48;99609.91;;;7.49;100.00
5753;BME280;2901;42.140;24.760;2022-12-07T02:15:17;99602.22;;;7.50;100.00
5753;BME280;2901;42.140;24.760;2022-12-07T02:32:06;99579.84;;;7.46;100.00
5753;BME280;2901;42.140;24.760;2022-12-07T02:34:50;99579.84;;;7.48;100.00
5753;BME280;2901;42.140;24.760;2022-12-07T02:38:04;99579.91;;;7.51;100.00
5753;BME280;2901;42.140;24.760;2022-12-07T02:40:39;99585.00;;;7.46;100.00
5753;BME280;2901;42.140;24.760;2022-12-07T02:43:26;99577.25;;;7.40;100.00
5753;BME280;2901;42.140;24.760;2022-12-07T02:46:00;99584.97;;;7.45;100.00
5753;BME280;2901;42.140;24.760;2022-12-07T02:48:27;99580.69;;;7.42;100.00
5753;BME280;2901;42.140;24.760;2022-12-07T02:50:54;99578.91;;;7.35;100.00
5753;BME280;2901;42.140;24.760;2022-12-07T02:53:36;99572.88;;;7.31;100.00
5753;BME280;2901;42.140;24.760;2022-12-07T02:56:11;99570.22;;;7.22;100.00
5753;BME280;2901;42.140;24.760;2022-12-07T03:06:53;99553.91;;;7.20;100.00
5753;BME280;2901;42.140;24.760;2022-12-07T03:09:33;99555.63;;;7.24;100.00
5753;BME280;2901;42.140;24.760;2022-12-07T03:12:10;99552.19;;;7.22;100.00
5753;BME280;2901;42.140;24.760;2022-12-07T03:14:47;99556.50;;;7.25;100.00
5753;BME280;2901;42.140;24.760;2022-12-07T03:17:27;99560.78;;;7.23;100.00
5753;BME280;2901;42.140;24.760;2022-12-07T03:19:58;99558.16;;;7.14;100.00
5753;BME280;2901;42.140;24.760;2022-12-07T03:22:25;99566.56;;;6.96;100.00
5753;BME280;2901;42.140;24.760;2022-12-07T03:24:57;99566.59;;;6.98;100.00
5753;BME280;2901;42.140;24.760;2022-12-07T03:27:27;99581.16;;;6.97;100.00
5753;BME280;2901;42.140;24.760;2022-12-07T03:29:59;99575.13;;;6.95;100.00
5753;BME280;2901;42.140;24.760;2022-12-07T03:32:45;99567.50;;;7.03;100.00
5753;BME280;2901;42.140;24.760;2022-12-07T03:35:20;99568.44;;;7.14;100.00
5753;BME280;2901;42.140;24.760;2022-12-07T03:38:00;99567.59;;;7.18;100.00
5753;BME280;2901;42.140;24.760;2022-12-07T03:40:42;99569.41;;;7.26;100.00
5753;BME280;2901;42.140;24.760;2022-12-07T03:43:10;99571.19;;;7.34;100.00
5753;BME280;2901;42.140;24.760;2022-12-07T03:45:44;99574.66;;;7.40;100.00
5753;BME280;2901;42.140;24.760;2022-12-07T03:50:50;99566.06;;;7.40;100.00
5753;BME280;2901;42.140;24.760;2022-12-07T03:53:43;99560.03;;;7.36;100.00
5753;BME280;2901;42.140;24.760;2022-12-07T03:56:11;99566.09;;;7.43;100.00
5753;BME280;2901;42.140;24.760;2022-12-07T03:58:38;99560.03;;;7.38;100.00
5753;BME280;2901;42.140;24.760;2022-12-07T04:01:03;99557.44;;;7.35;100.00
5753;BME280;2901;42.140;24.760;2022-12-07T04:03:29;99553.06;;;7.23;100.00
5753;BME280;2901;42.140;24.760;2022-12-07T04:05:54;99554.72;;;7.16;100.00
5753;BME280;2901;42.140;24.760;2022-12-07T04:08:20;99554.72;;;7.13;100.00
5753;BME280;2901;42.140;24.760;2022-12-07T04:10:45;99557.22;;;7.06;100.00
5753;BME280;2901;42.140;24.760;2022-12-07T04:13:11;99554.56;;;6.98;100.00
5753;BME280;2901;42.140;24.760;2022-12-07T04:15:36;99553.69;;;6.93;100.00
5753;BME280;2901;42.140;24.760;2022-12-07T04:18:01;99557.88;;;6.85;100.00
5753;BME280;2901;42.140;24.760;2022-12-07T04:20:27;99562.91;;;6.73;100.00
5753;BME280;2901;42.140;24.760;2022-12-07T04:22:52;99561.19;;;6.70;100.00
5753;BME280;2901;42.140;24.760;2022-12-07T04:25:17;99549.19;;;6.71;100.00
5753;BME280;2901;42.140;24.760;2022-12-07T04:27:43;99549.19;;;6.72;100.00
5753;BME280;2901;42.140;24.760;2022-12-07T04:30:09;99546.66;;;6.78;100.00
5753;BME280;2901;42.140;24.760;2022-12-07T04:32:34;99544.13;;;6.80;100.00
5753;BME280;2901;42.140;24.760;2022-12-07T04:35:00;99548.44;;;6.84;100.00
5753;BME280;2901;42.140;24.760;2022-12-07T04:37:25;99552.72;;;6.84;100.00
5753;BME280;2901;42.140;24.760;2022-12-07T04:39:51;99545.03;;;6.87;100.00
5753;BME280;2901;42.140;24.760;2022-12-07T04:42:16;99546.72;;;6.83;100.00
5753;BME280;2901;42.140;24.760;2022-12-07T04:44:41;99534.63;;;6.76;100.00
5753;BME280;2901;42.140;24.760;2022-12-07T04:47:07;99547.53;;;6.79;100.00
5753;BME280;2901;42.140;24.760;2022-12-07T04:49:32;99549.22;;;6.75;100.00
5753;BME280;2901;42.140;24.760;2022-12-07T04:51:58;99540.63;;;6.73;100.00
5753;BME280;2901;42.140;24.760;2022-12-07T04:54:23;99535.44;;;6.69;100.00
5753;BME280;2901;42.140;24.760;2022-12-07T04:56:49;99541.47;;;6.71;100.00
5753;BME280;2901;42.140;24.760;2022-12-07T04:59:15;99545.72;;;6.69;100.00
5753;BME280;2901;42.140;24.760;2022-12-07T05:01:41;99542.22;;;6.61;100.00
5753;BME280;2901;42.140;24.760;2022-12-07T05:04:07;99554.28;;;6.66;100.00
5753;BME280;2901;42.140;24.760;2022-12-07T05:06:33;99548.34;;;6.73;100.00
5753;BME280;2901;42.140;24.760;2022-12-07T05:08:58;99559.50;;;6.74;100.00
5753;BME280;2901;42.140;24.760;2022-12-07T05:11:24;99561.19;;;6.72;100.00
5753;BME280;2901;42.140;24.760;2022-12-07T05:14:11;99556.00;;;6.69;100.00
5753;BME280;2901;42.140;24.760;2022-12-07T05:16:37;99560.97;;;6.51;100.00
5753;BME280;2901;42.140;24.760;2022-12-07T05:19:03;99560.13;;;6.52;100.00
5753;BME280;2901;42.140;24.760;2022-12-07T05:21:29;99553.31;;;6.57;100.00
5753;BME280;2901;42.140;24.760;2022-12-07T05:23:54;99552.47;;;6.58;100.00
5753;BME280;2901;42.140;24.760;2022-12-07T05:26:20;99553.25;;;6.51;100.00
5753;BME280;2901;42.140;24.760;2022-12-07T05:28:50;99560.94;;;6.48;100.00
5753;BME280;2901;42.140;24.760;2022-12-07T05:31:15;99564.34;;;6.45;100.00
5753;BME280;2901;42.140;24.760;2022-12-07T05:33:40;99567.03;;;6.54;100.00
5753;BME280;2901;42.140;24.760;2022-12-07T05:36:06;99557.66;;;6.61;100.00
5753;BME280;2901;42.140;24.760;2022-12-07T05:38:32;99546.50;;;6.62;100.00
5753;BME280;2901;42.140;24.760;2022-12-07T05:41:03;99560.41;;;6.77;100.00
5753;BME280;2901;42.140;24.760;2022-12-07T05:43:29;99553.53;;;6.78;100.00
5753;BME280;2901;42.140;24.760;2022-12-07T05:45:55;99542.38;;;6.77;100.00
5753;BME280;2901;42.140;24.760;2022-12-07T05:48:22;99557.00;;;6.82;100.00
5753;BME280;2901;42.140;24.760;2022-12-07T05:50:48;99556.16;;;6.86;100.00
5753;BME280;2901;42.140;24.760;2022-12-07T05:53:13;99561.38;;;6.92;100.00
5753;BME280;2901;42.140;24.760;2022-12-07T05:55:39;99559.69;;;6.94;100.00
5753;BME280;2901;42.140;24.760;2022-12-07T05:58:04;99546.84;;;6.97;100.00
5753;BME280;2901;42.140;24.760;2022-12-07T06:00:48;99567.44;;;6.98;100.00
5753;BME280;2901;42.140;24.760;2022-12-07T06:03:14;99570.06;;;7.01;100.00
5753;BME280;2901;42.140;24.760;2022-12-07T06:05:39;99568.31;;;6.97;100.00
5753;BME280;2901;42.140;24.760;2022-12-07T06:08:04;99564.78;;;6.88;100.00
5753;BME280;2901;42.140;24.760;2022-12-07T06:10:30;99571.53;;;6.76;100.00
5753;BME280;2901;42.140;24.760;2022-12-07T06:12:55;99568.03;;;6.70;100.00
5753;BME280;2901;42.140;24.760;2022-12-07T06:15:21;99571.44;;;6.69;100.00
5753;BME280;2901;42.140;24.760;2022-12-07T06:17:48;99580.97;;;6.76;100.00
5753;BME280;2901;42.140;24.760;2022-12-07T06:20:13;99574.09;;;6.76;100.00
5753;BME280;2901;42.140;24.760;2022-12-07T06:22:39;99570.59;;;6.70;100.00
5753;BME280;2901;42.140;24.760;2022-12-07T06:25:05;99567.16;;;6.69;100.00
5753;BME280;2901;42.140;24.760;2022-12-07T06:27:30;99571.44;;;6.67;100.00
5753;BME280;2901;42.140;24.760;2022-12-07T06:29:58;99573.22;;;6.71;100.00
5753;BME280;2901;42.140;24.760;2022-12-07T06:32:23;99574.06;;;6.73;100.00
5753;BME280;2901;42.140;24.760;2022-12-07T06:34:48;99573.22;;;6.73;100.00
5753;BME280;2901;42.140;24.760;2022-12-07T06:37:14;99577.50;;;6.75;100.00
5753;BME280;2901;42.140;24.760;2022-12-07T06:39:39;99581.81;;;6.76;100.00
5753;BME280;2901;42.140;24.760;2022-12-07T06:42:04;99585.25;;;6.77;100.00
5753;BME280;2901;42.140;24.760;2022-12-07T06:44:30;99582.78;;;6.85;100.00
5753;BME280;2901;42.140;24.760;2022-12-07T06:46:55;99584.59;;;6.95;100.00
5753;BME280;2901;42.140;24.760;2022-12-07T06:49:21;99582.09;;;7.05;100.00
5753;BME280;2901;42.140;24.760;2022-12-07T06:51:46;99585.69;;;7.22;100.00
5753;BME280;2901;42.140;24.760;2022-12-07T06:54:13;99578.94;;;7.37;100.00
5753;BME280;2901;42.140;24.760;2022-12-07T06:56:39;99584.19;;;7.53;100.00
5753;BME280;2901;42.140;24.760;2022-12-07T06:59:05;99576.56;;;7.68;100.00
5753;BME280;2901;42.140;24.760;2022-12-07T07:01:31;99587.81;;;7.82;100.00
5753;BME280;2901;42.140;24.760;2022-12-07T07:03:57;99570.69;;;7.94;100.00
5753;BME280;2901;42.140;24.760;2022-12-07T07:06:22;99578.47;;;8.04;100.00
5753;BME280;2901;42.140;24.760;2022-12-07T07:08:48;99576.84;;;8.18;100.00
5753;BME280;2901;42.140;24.760;2022-12-07T07:11:13;99570.84;;;8.25;100.00
5753;BME280;2901;42.140;24.760;2022-12-07T07:13:38;99565.78;;;8.36;100.00
5753;BME280;2901;42.140;24.760;2022-12-07T07:16:05;99569.22;;;8.41;100.00
5753;BME280;2901;42.140;24.760;2022-12-07T07:18:30;99572.69;;;8.51;100.00
5753;BME280;2901;42.140;24.760;2022-12-07T07:20:56;99575.25;;;8.51;100.00
5753;BME280;2901;42.140;24.760;2022-12-07T07:23:22;99578.72;;;8.54;100.00
5753;BME280;2901;42.140;24.760;2022-12-07T07:25:48;99574.44;;;8.62;100.00
5753;BME280;2901;42.140;24.760;2022-12-07T07:28:14;99575.31;;;8.72;100.00
5753;BME280;2901;42.140;24.760;2022-12-07T07:30:40;99570.16;;;8.75;100.00
5753;BME280;2901;42.140;24.760;2022-12-07T07:33:06;99565.00;;;8.81;100.00
5753;BME280;2901;42.140;24.760;2022-12-07T07:35:32;99570.19;;;8.90;100.00
5753;BME280;2901;42.140;24.760;2022-12-07T07:37:59;99566.75;;;9.00;100.00
5753;BME280;2901;42.140;24.760;2022-12-07T07:40:25;99571.06;;;9.10;100.00
5753;BME280;2901;42.140;24.760;2022-12-07T07:42:52;99568.47;;;9.22;100.00
5753;BME280;2901;42.140;24.760;2022-12-07T07:45:19;99572.81;;;9.25;100.00
5753;BME280;2901;42.140;24.760;2022-12-07T07:47:45;99585.72;;;9.40;100.00
5753;BME280;2901;42.140;24.760;2022-12-07T07:50:10;99587.44;;;9.39;100.00
5753;BME280;2901;42.140;24.760;2022-12-07T07:52:35;99586.56;;;9.51;100.00
5753;BME280;2901;42.140;24.760;2022-12-07T07:55:01;99589.13;;;9.60;100.00
5753;BME280;2901;42.140;24.760;2022-12-07T07:57:26;99599.47;;;9.62;100.00
5753;BME280;2901;42.140;24.760;2022-12-07T07:59:52;99587.41;;;9.62;100.00
5753;BME280;2901;42.140;24.760;2022-12-07T08:02:19;99580.50;;;9.69;100.00
5753;BME280;2901;42.140;24.760;2022-12-07T08:04:45;99585.66;;;9.84;100.00
5753;BME280;2901;42.140;24.760;2022-12-07T08:07:11;99589.03;;;10.01;100.00
5753;BME280;2901;42.140;24.760;2022-12-07T08:09:37;99586.47;;;10.16;99.73
5753;BME280;2901;42.140;24.760;2022-12-07T08:12:03;99586.41;;;10.21;99.13
5753;BME280;2901;42.140;24.760;2022-12-07T08:14:28;99587.25;;;10.36;98.36
5753;BME280;2901;42.140;24.760;2022-12-07T08:16:54;99586.28;;;10.54;97.93
5753;BME280;2901;42.140;24.760;2022-12-07T08:19:20;99577.56;;;10.72;97.54
5753;BME280;2901;42.140;24.760;2022-12-07T08:21:45;99581.72;;;10.94;97.30
5753;BME280;2901;42.140;24.760;2022-12-07T08:24:10;99583.22;;;11.28;96.92
5753;BME280;2901;42.140;24.760;2022-12-07T08:26:36;99587.38;;;11.46;94.77
5753;BME280;2901;42.140;24.760;2022-12-07T08:29:02;99584.63;;;11.63;93.59
5753;BME280;2901;42.140;24.760;2022-12-07T08:31:27;99584.50;;;11.79;93.80
5753;BME280;2901;42.140;24.760;2022-12-07T08:33:53;99585.25;;;11.92;93.24
5753;BME280;2901;42.140;24.760;2022-12-07T08:36:19;99573.88;;;12.02;92.63
5753;BME280;2901;42.140;24.760;2022-12-07T08:38:45;99583.09;;;12.29;91.99
5753;BME280;2901;42.140;24.760;2022-12-07T08:41:10;99578.72;;;12.34;90.37
5753;BME280;2901;42.140;24.760;2022-12-07T08:43:36;99584.81;;;12.30;89.99
5753;BME280;2901;42.140;24.760;2022-12-07T08:48:43;99570.25;;;12.18;89.87
5753;BME280;2901;42.140;24.760;2022-12-07T08:51:10;99562.19;;;12.41;90.52
5753;BME280;2901;42.140;24.760;2022-12-07T08:53:37;99557.44;;;12.70;89.83
5753;BME280;2901;42.140;24.760;2022-12-07T08:56:03;99554.56;;;12.90;89.41
5753;BME280;2901;42.140;24.760;2022-12-07T08:58:29;99556.84;;;13.11;87.95
5753;BME280;2901;42.140;24.760;2022-12-07T09:00:54;99555.91;;;13.15;87.83
5753;BME280;2901;42.140;24.760;2022-12-07T09:03:20;99557.47;;;13.27;87.60
5753;BME280;2901;42.140;24.760;2022-12-07T09:05:45;99551.03;;;13.47;86.41
5753;BME280;2901;42.140;24.760;2022-12-07T09:08:11;99548.31;;;13.55;86.22
5753;BME280;2901;42.140;24.760;2022-12-07T09:10:36;99540.25;;;13.69;85.76
5753;BME280;2901;42.140;24.760;2022-12-07T09:13:02;99535.59;;;13.40;84.76
5753;BME280;2901;42.140;24.760;2022-12-07T09:15:28;99526.00;;;13.43;85.45
5753;BME280;2901;42.140;24.760;2022-12-07T09:17:54;99522.38;;;13.50;84.85
5753;BME280;2901;42.140;24.760;2022-12-07T09:20:20;99517.59;;;13.74;84.25
5753;BME280;2901;42.140;24.760;2022-12-07T09:22:45;99522.97;;;13.65;83.96
5753;BME280;2901;42.140;24.760;2022-12-07T09:25:11;99522.13;;;13.64;83.56
5753;BME280;2901;42.140;24.760;2022-12-07T09:27:36;99504.75;;;13.66;83.35
5753;BME280;2901;42.140;24.760;2022-12-07T09:30:03;99505.31;;;13.82;83.07
5753;BME280;2901;42.140;24.760;2022-12-07T09:32:29;99508.59;;;13.90;83.11
5753;BME280;2901;42.140;24.760;2022-12-07T09:34:54;99500.53;;;14.03;83.00
5753;BME280;2901;42.140;24.760;2022-12-07T09:37:20;99490.63;;;14.21;82.52
5753;BME280;2901;42.140;24.760;2022-12-07T09:39:45;99491.41;;;14.24;81.39
5753;BME280;2901;42.140;24.760;2022-12-07T09:42:28;99488.56;;;13.95;81.63
5753;BME280;2901;42.140;24.760;2022-12-07T09:44:55;99485.84;;;13.99;81.89
5753;BME280;2901;42.140;24.760;2022-12-07T09:47:21;99483.09;;;14.07;81.80
5753;BME280;2901;42.140;24.760;2022-12-07T09:49:46;99480.69;;;13.98;82.94
5753;BME280;2901;42.140;24.760;2022-12-07T09:54:41;99467.41;;;14.10;81.88
5753;BME280;2901;42.140;24.760;2022-12-07T09:57:11;99468.69;;;14.32;81.33
5753;BME280;2901;42.140;24.760;2022-12-07T09:59:38;99465.59;;;14.53;80.60
5753;BME280;2901;42.140;24.760;2022-12-07T10:05:05;99473.09;;;14.67;79.07
5753;BME280;2901;42.140;24.760;2022-12-07T10:07:32;99467.09;;;14.65;79.13
5753;BME280;2901;42.140;24.760;2022-12-07T10:09:57;99468.84;;;14.63;79.64
5753;BME280;2901;42.140;24.760;2022-12-07T10:12:22;99466.88;;;14.73;79.63
5753;BME280;2901;42.140;24.760;2022-12-07T10:14:57;99450.28;;;14.77;78.62
5753;BME280;2901;42.140;24.760;2022-12-07T10:17:29;99462.75;;;14.24;79.72
5753;BME280;2901;42.140;24.760;2022-12-07T10:20:28;99450.47;;;14.29;80.14
5753;BME280;2901;42.140;24.760;2022-12-07T10:22:59;99444.69;;;14.17;80.13
5753;BME280;2901;42.140;24.760;2022-12-07T10:25:28;99451.25;;;13.94;81.45
5753;BME280;2901;42.140;24.760;2022-12-07T10:28:01;99431.34;;;13.92;82.02
5753;BME280;2901;42.140;24.760;2022-12-07T10:30:27;99434.41;;;14.11;82.36
5753;BME280;2901;42.140;24.760;2022-12-07T10:32:52;99433.03;;;14.33;81.37
5753;BME280;2901;42.140;24.760;2022-12-07T10:37:43;99425.00;;;14.45;81.05
5753;BME280;2901;42.140;24.760;2022-12-07T10:43:17;99436.31;;;14.42;81.14
5753;BME280;2901;42.140;24.760;2022-12-07T10:46:08;99442.88;;;14.60;80.37
5753;BME280;2901;42.140;24.760;2022-12-07T10:51:55;99444.38;;;14.69;79.22
5753;BME280;2901;42.140;24.760;2022-12-07T11:00:21;99427.09;;;15.00;77.77
5753;BME280;2901;42.140;24.760;2022-12-07T11:08:24;99418.47;;;14.98;78.75
5753;BME280;2901;42.140;24.760;2022-12-07T11:11:18;99405.41;;;14.64;79.11
5753;BME280;2901;42.140;24.760;2022-12-07T11:25:17;99398.47;;;14.65;80.48
5753;BME280;2901;42.140;24.760;2022-12-07T11:27:51;99398.63;;;14.57;80.35
5753;BME280;2901;42.140;24.760;2022-12-07T11:30:36;99398.22;;;14.38;80.73
5753;BME280;2901;42.140;24.760;2022-12-07T11:38:57;99381.47;;;14.10;82.88
5753;BME280;2901;42.140;24.760;2022-12-07T11:41:29;99377.69;;;14.23;82.32
5753;BME280;2901;42.140;24.760;2022-12-07T11:46:59;99377.03;;;14.15;82.66
5753;BME280;2901;42.140;24.760;2022-12-07T11:49:54;99377.81;;;14.19;82.75
5753;BME280;2901;42.140;24.760;2022-12-07T11:54:52;99362.53;;;14.03;83.21
5753;BME280;2901;42.140;24.760;2022-12-07T11:57:38;99358.19;;;14.04;83.48
5753;BME280;2901;42.140;24.760;2022-12-07T12:00:15;99361.84;;;13.95;83.60
5753;BME280;2901;42.140;24.760;2022-12-07T12:02:52;99359.31;;;13.92;83.47
5753;BME280;2901;42.140;24.760;2022-12-07T12:05:22;99356.00;;;13.86;83.63
5753;BME280;2901;42.140;24.760;2022-12-07T12:13:20;99356.66;;;13.95;84.01
5753;BME280;2901;42.140;24.760;2022-12-07T12:21:46;99347.63;;;14.10;83.11
5753;BME280;2901;42.140;24.760;2022-12-07T12:24:16;99342.22;;;14.19;82.66
5753;BME280;2901;42.140;24.760;2022-12-07T12:26:57;99347.22;;;14.27;82.68
5753;BME280;2901;42.140;24.760;2022-12-07T12:29:41;99350.56;;;14.33;83.00
5753;BME280;2901;42.140;24.760;2022-12-07T12:32:18;99346.44;;;14.23;82.57
5753;BME280;2901;42.140;24.760;2022-12-07T12:42:51;99327.72;;;14.08;82.49
5753;BME280;2901;42.140;24.760;2022-12-07T12:45:18;99320.78;;;14.08;82.62
5753;BME280;2901;42.140;24.760;2022-12-07T12:48:04;99319.13;;;14.04;83.05
5753;BME280;2901;42.140;24.760;2022-12-07T12:50:37;99319.22;;;13.99;83.16
5753;BME280;2901;42.140;24.760;2022-12-07T12:53:22;99313.44;;;13.87;83.36
5753;BME280;2901;42.140;24.760;2022-12-07T12:58:29;99315.13;;;13.51;84.38
5753;BME280;2901;42.140;24.760;2022-12-07T13:03:56;99324.13;;;13.35;85.30
5753;BME280;2901;42.140;24.760;2022-12-07T13:08:53;99313.06;;;13.25;85.62
5753;BME280;2901;42.140;24.760;2022-12-07T13:16:59;99305.31;;;13.22;86.15
5753;BME280;2901;42.140;24.760;2022-12-07T13:27:57;99313.41;;;13.07;87.20
5753;BME280;2901;42.140;24.760;2022-12-07T13:30:23;99320.28;;;13.11;86.91
5753;BME280;2901;42.140;24.760;2022-12-07T13:32:56;99321.88;;;13.18;87.00
5753;BME280;2901;42.140;24.760;2022-12-07T13:35:31;99309.94;;;13.07;87.02
5753;BME280;2901;42.140;24.760;2022-12-07T13:37:57;99316.78;;;13.14;86.87
5753;BME280;2901;42.140;24.760;2022-12-07T13:40:23;99314.22;;;13.11;87.55
5753;BME280;2901;42.140;24.760;2022-12-07T13:42:57;99313.25;;;13.16;87.08
5753;BME280;2901;42.140;24.760;2022-12-07T13:45:28;99319.06;;;13.27;86.80
5753;BME280;2901;42.140;24.760;2022-12-07T13:48:22;99308.50;;;13.36;87.01
5753;BME280;2901;42.140;24.760;2022-12-07T13:50:54;99309.31;;;13.38;86.41
5753;BME280;2901;42.140;24.760;2022-12-07T13:53:20;99307.66;;;13.34;86.36
5753;BME280;2901;42.140;24.760;2022-12-07T13:55:47;99317.25;;;13.32;86.72
5753;BME280;2901;42.140;24.760;2022-12-07T13:58:13;99313.06;;;13.24;86.73
5753;BME280;2901;42.140;24.760;2022-12-07T14:00:40;99312.25;;;13.23;87.37
5753;BME280;2901;42.140;24.760;2022-12-07T14:05:38;99320.78;;;13.28;87.58
5753;BME280;2901;42.140;24.760;2022-12-07T14:08:25;99317.50;;;13.20;88.02
5753;BME280;2901;42.140;24.760;2022-12-07T14:13:36;99317.88;;;12.99;88.24
5753;BME280;2901;42.140;24.760;2022-12-07T14:18:47;99321.47;;;12.92;89.04
5753;BME280;2901;42.140;24.760;2022-12-07T14:23:39;99315.53;;;12.87;89.15
5753;BME280;2901;42.140;24.760;2022-12-07T14:26:13;99319.81;;;12.88;89.73
5753;BME280;2901;42.140;24.760;2022-12-07T14:28:40;99317.22;;;12.88;89.75
5753;BME280;2901;42.140;24.760;2022-12-07T14:31:17;99305.19;;;12.84;89.83
5753;BME280;2901;42.140;24.760;2022-12-07T14:33:43;99308.72;;;12.80;90.29
5753;BME280;2901;42.140;24.760;2022-12-07T14:36:09;99320.84;;;12.81;90.03
5753;BME280;2901;42.140;24.760;2022-12-07T14:38:35;99309.69;;;12.74;90.27
5753;BME280;2901;42.140;24.760;2022-12-07T14:41:01;99320.06;;;12.76;90.58
5753;BME280;2901;42.140;24.760;2022-12-07T14:43:46;99315.84;;;12.70;91.18
5753;BME280;2901;42.140;24.760;2022-12-07T14:46:11;99324.56;;;12.66;90.64
5753;BME280;2901;42.140;24.760;2022-12-07T14:48:37;99317.69;;;12.62;91.08
5753;BME280;2901;42.140;24.760;2022-12-07T14:51:03;99316.94;;;12.56;90.98
5753;BME280;2901;42.140;24.760;2022-12-07T14:53:33;99312.72;;;12.50;92.27
5753;BME280;2901;42.140;24.760;2022-12-07T14:56:01;99310.25;;;12.42;92.35
5753;BME280;2901;42.140;24.760;2022-12-07T14:58:26;99315.47;;;12.41;92.93
5753;BME280;2901;42.140;24.760;2022-12-07T15:00:52;99317.31;;;12.34;92.41
5753;BME280;2901;42.140;24.760;2022-12-07T15:03:17;99301.16;;;12.17;92.29
5753;BME280;2901;42.140;24.760;2022-12-07T15:05:42;99311.50;;;12.20;92.59
5753;BME280;2901;42.140;24.760;2022-12-07T15:08:10;99296.94;;;12.10;93.06
5753;BME280;2901;42.140;24.760;2022-12-07T15:10:36;99317.75;;;12.07;93.20
5753;BME280;2901;42.140;24.760;2022-12-07T15:13:04;99310.13;;;11.96;93.71
5753;BME280;2901;42.140;24.760;2022-12-07T15:15:49;99314.50;;;11.93;94.43
5753;BME280;2901;42.140;24.760;2022-12-07T15:18:15;99323.19;;;11.89;94.83
5753;BME280;2901;42.140;24.760;2022-12-07T15:20:41;99327.63;;;11.84;95.52
5753;BME280;2901;42.140;24.760;2022-12-07T15:23:06;99329.41;;;11.80;94.96
5753;BME280;2901;42.140;24.760;2022-12-07T15:25:32;99334.63;;;11.76;95.68
5753;BME280;2901;42.140;24.760;2022-12-07T15:27:58;99333.84;;;11.71;95.86
5753;BME280;2901;42.140;24.760;2022-12-07T15:30:23;99336.47;;;11.66;95.99